createdAt,value
2022-09-20T00:00:11.217Z,10.02
2022-09-20T00:01:11.301Z,10.02
2022-09-20T00:02:11.197Z,10.02
2022-09-20T00:03:11.211Z,10.02
2022-09-20T00:04:11.330Z,10.05
2022-09-20T00:05:11.277Z,10.04
2022-09-20T00:06:11.153Z,10.04
2022-09-20T00:07:11.126Z,10.04
2022-09-20T00:08:11.134Z,10.05
2022-09-20T00:09:11.153Z,10.05
2022-09-20T00:10:11.106Z,10.04
2022-09-20T00:11:11.094Z,10.05
2022-09-20T00:12:11.086Z,10.04
2022-09-20T00:13:11.067Z,10.04
2022-09-20T00:14:11.078Z,10.04
2022-09-20T00:15:11.059Z,10.07
2022-09-20T00:16:11.077Z,10.09
2022-09-20T00:17:11.030Z,10.07
2022-09-20T00:18:11.018Z,10.09
2022-09-20T00:19:10.995Z,10.07
2022-09-20T00:20:11.007Z,10.10
2022-09-20T00:21:10.974Z,10.12
2022-09-20T00:22:10.966Z,10.10
2022-09-20T00:23:10.954Z,10.12
2022-09-20T00:24:11.470Z,10.10
2022-09-20T00:25:10.939Z,10.09
2022-09-20T00:26:10.926Z,10.07
2022-09-20T00:27:10.918Z,10.07
2022-09-20T00:28:10.899Z,10.10
2022-09-20T00:29:10.875Z,10.09
2022-09-20T00:30:10.907Z,10.09
2022-09-20T00:31:10.858Z,10.07
2022-09-20T00:32:10.945Z,10.05
2022-09-20T00:33:10.846Z,10.07
2022-09-20T00:34:10.838Z,10.04
2022-09-20T00:35:10.820Z,10.02
2022-09-20T00:36:10.818Z,10.01
2022-09-20T00:37:10.799Z,10.01
2022-09-20T00:38:10.786Z,10.02
2022-09-20T00:39:10.767Z,10.02
2022-09-20T00:40:10.840Z,10.01
2022-09-20T00:41:10.774Z,10.01
2022-09-20T00:42:10.758Z,10.01
2022-09-20T00:43:10.719Z,10.01
2022-09-20T00:44:10.755Z,10.01
2022-09-20T00:45:10.698Z,9.99
2022-09-20T00:46:10.780Z,10.01
2022-09-20T00:47:10.687Z,10.01
2022-09-20T00:48:10.667Z,10.01
2022-09-20T00:49:10.658Z,10.02
2022-09-20T00:50:10.646Z,10.02
2022-09-20T00:51:10.658Z,10.02
2022-09-20T00:52:10.647Z,10.02
2022-09-20T00:53:10.598Z,10.01
2022-09-20T00:54:10.620Z,10.01
2022-09-20T00:55:10.595Z,9.99
2022-09-20T00:56:10.578Z,9.99
2022-09-20T00:57:10.587Z,10.01
2022-09-20T00:58:10.558Z,10.02
2022-09-20T00:59:10.538Z,10.02
2022-09-20T01:00:10.532Z,10.05
2022-09-20T01:01:10.579Z,10.02
2022-09-20T01:02:10.549Z,10.02
2022-09-20T01:03:10.563Z,10.01
2022-09-20T01:04:10.546Z,10.01
2022-09-20T01:05:10.477Z,10.04
2022-09-20T01:06:10.474Z,10.02
2022-09-20T01:07:10.447Z,10.02
2022-09-20T01:08:10.482Z,10.02
2022-09-20T01:09:10.459Z,10.02
2022-09-20T01:10:10.419Z,10.01
2022-09-20T01:11:10.408Z,10.01
2022-09-20T01:12:10.399Z,10.01
2022-09-20T01:13:10.370Z,10.01
2022-09-20T01:14:10.403Z,10.02
2022-09-20T01:15:10.359Z,10.04
2022-09-20T01:16:10.378Z,10.02
2022-09-20T01:17:10.333Z,10.04
2022-09-20T01:18:10.420Z,10.05
2022-09-20T01:19:10.307Z,10.09
2022-09-20T01:20:10.309Z,10.05
2022-09-20T01:21:10.305Z,10.04
2022-09-20T01:22:10.287Z,10.02
2022-09-20T01:23:10.266Z,10.01
2022-09-20T01:24:10.279Z,10.01
2022-09-20T01:25:10.260Z,9.98
2022-09-20T01:26:10.279Z,9.98
2022-09-20T01:27:10.267Z,9.97
2022-09-20T01:28:10.300Z,9.95
2022-09-20T01:29:10.299Z,9.92
2022-09-20T01:30:10.342Z,9.94
2022-09-20T01:31:10.344Z,9.92
2022-09-20T01:32:10.396Z,9.92
2022-09-20T01:33:10.359Z,9.89
2022-09-20T01:34:10.388Z,9.91
2022-09-20T01:35:10.456Z,9.89
2022-09-20T01:36:10.435Z,9.89
2022-09-20T01:37:10.453Z,9.92
2022-09-20T01:38:10.519Z,9.91
2022-09-20T01:39:10.387Z,9.91
2022-09-20T01:40:10.705Z,9.91
2022-09-20T01:41:10.432Z,9.91
2022-09-20T01:42:10.501Z,9.91
2022-09-20T01:43:10.452Z,9.87
2022-09-20T01:44:10.107Z,9.86
2022-09-20T01:45:10.739Z,9.86
2022-09-20T01:46:10.116Z,9.87
2022-09-20T01:47:10.007Z,9.86
2022-09-20T01:48:10.464Z,9.86
2022-09-20T01:49:10.327Z,9.87
2022-09-20T01:50:10.016Z,9.86
2022-09-20T01:51:09.975Z,9.87
2022-09-20T01:52:09.939Z,9.87
2022-09-20T01:53:10.784Z,9.86
2022-09-20T01:54:09.911Z,9.86
2022-09-20T01:55:09.911Z,9.84
2022-09-20T01:56:09.911Z,9.86
2022-09-20T01:57:09.892Z,9.84
2022-09-20T01:58:09.871Z,9.87
2022-09-20T01:59:23.575Z,9.86
2022-09-20T02:00:10.876Z,9.86
2022-09-20T02:01:09.856Z,9.84
2022-09-20T02:02:09.921Z,9.84
2022-09-20T02:03:09.828Z,9.84
2022-09-20T02:04:09.799Z,9.84
2022-09-20T02:05:09.792Z,9.86
2022-09-20T02:06:09.772Z,9.87
2022-09-20T02:07:09.780Z,9.86
2022-09-20T02:08:09.788Z,9.87
2022-09-20T02:09:09.752Z,9.87
2022-09-20T02:10:09.735Z,9.87
2022-09-20T02:11:09.732Z,9.87
2022-09-20T02:12:09.712Z,9.89
2022-09-20T02:13:09.892Z,9.89
2022-09-20T02:14:09.712Z,9.87
2022-09-20T02:15:09.689Z,9.86
2022-09-20T02:16:09.694Z,9.84
2022-09-20T02:17:09.681Z,9.83
2022-09-20T02:18:09.644Z,9.82
2022-09-20T02:19:09.664Z,9.80
2022-09-20T02:20:09.621Z,9.80
2022-09-20T02:21:09.622Z,9.82
2022-09-20T02:22:09.592Z,9.82
2022-09-20T02:23:09.674Z,9.82
2022-09-20T02:24:09.572Z,9.80
2022-09-20T02:25:09.586Z,9.79
2022-09-20T02:26:09.552Z,9.76
2022-09-20T02:27:09.561Z,9.74
2022-09-20T02:28:09.533Z,9.74
2022-09-20T02:29:09.522Z,9.74
2022-09-20T02:30:09.540Z,9.74
2022-09-20T02:31:09.504Z,9.72
2022-09-20T02:32:09.505Z,9.74
2022-09-20T02:33:09.741Z,9.73
2022-09-20T02:34:09.461Z,9.73
2022-09-20T02:35:09.485Z,9.73
2022-09-20T02:36:09.449Z,9.73
2022-09-20T02:37:09.432Z,9.69
2022-09-20T02:38:09.420Z,9.66
2022-09-20T02:39:09.441Z,9.69
2022-09-20T02:40:09.434Z,9.68
2022-09-20T02:41:09.394Z,9.68
2022-09-20T02:42:09.364Z,9.66
2022-09-20T02:43:09.374Z,9.68
2022-09-20T02:44:09.345Z,9.66
2022-09-20T02:45:09.364Z,9.66
2022-09-20T02:46:09.422Z,9.62
2022-09-20T02:47:09.320Z,9.65
2022-09-20T02:48:09.317Z,9.62
2022-09-20T02:49:09.303Z,9.61
2022-09-20T02:50:09.305Z,9.61
2022-09-20T02:51:09.302Z,9.58
2022-09-20T02:52:09.260Z,9.56
2022-09-20T02:53:09.764Z,9.56
2022-09-20T02:54:09.224Z,9.56
2022-09-20T02:55:09.244Z,9.55
2022-09-20T02:56:09.220Z,9.54
2022-09-20T02:57:09.249Z,9.54
2022-09-20T02:58:09.185Z,9.50
2022-09-20T02:59:09.185Z,9.50
2022-09-20T03:00:09.185Z,9.50
2022-09-20T03:01:09.271Z,9.50
2022-09-20T03:02:09.237Z,9.48
2022-09-20T03:03:09.187Z,9.50
2022-09-20T03:04:09.133Z,9.50
2022-09-20T03:05:09.221Z,9.51
2022-09-20T03:06:09.228Z,9.48
2022-09-20T03:07:09.288Z,9.50
2022-09-20T03:08:09.234Z,9.50
2022-09-20T03:09:09.162Z,9.50
2022-09-20T03:10:09.181Z,9.50
2022-09-20T03:11:09.275Z,9.50
2022-09-20T03:12:09.121Z,9.48
2022-09-20T03:13:09.213Z,9.47
2022-09-20T03:14:09.293Z,9.47
2022-09-20T03:15:09.027Z,9.47
2022-09-20T03:16:09.049Z,9.47
2022-09-20T03:17:09.226Z,9.47
2022-09-20T03:18:09.193Z,9.48
2022-09-20T03:19:08.956Z,9.50
2022-09-20T03:20:08.969Z,9.50
2022-09-20T03:21:08.941Z,9.48
2022-09-20T03:22:08.945Z,9.51
2022-09-20T03:23:08.913Z,9.51
2022-09-20T03:24:08.901Z,9.50
2022-09-20T03:25:08.890Z,9.50
2022-09-20T03:26:08.897Z,9.47
2022-09-20T03:27:08.875Z,9.46
2022-09-20T03:28:08.882Z,9.46
2022-09-20T03:29:08.927Z,9.47
2022-09-20T03:30:08.833Z,9.47
2022-09-20T03:31:08.828Z,9.46
2022-09-20T03:32:08.831Z,9.46
2022-09-20T03:33:08.805Z,9.44
2022-09-20T03:34:08.804Z,9.44
2022-09-20T03:35:08.791Z,9.44
2022-09-20T03:36:08.774Z,9.44
2022-09-20T03:37:08.755Z,9.44
2022-09-20T03:38:08.734Z,9.47
2022-09-20T03:39:08.777Z,9.47
2022-09-20T03:40:08.732Z,9.48
2022-09-20T03:41:08.718Z,9.48
2022-09-20T03:42:08.699Z,9.51
2022-09-20T03:43:08.686Z,9.51
2022-09-20T03:44:08.726Z,9.50
2022-09-20T03:45:08.674Z,9.48
2022-09-20T03:46:08.656Z,9.50
2022-09-20T03:47:08.634Z,9.48
2022-09-20T03:48:08.617Z,9.47
2022-09-20T03:49:08.625Z,9.47
2022-09-20T03:50:08.606Z,9.46
2022-09-20T03:51:08.609Z,9.44
2022-09-20T03:52:08.574Z,9.44
2022-09-20T03:53:08.586Z,9.46
2022-09-20T03:54:08.597Z,9.47
2022-09-20T03:55:08.556Z,9.47
2022-09-20T03:56:08.535Z,9.48
2022-09-20T03:57:08.534Z,9.48
2022-09-20T03:58:09.117Z,9.48
2022-09-20T03:59:08.585Z,9.48
2022-09-20T04:00:08.506Z,9.50
2022-09-20T04:01:08.590Z,9.50
2022-09-20T04:02:08.502Z,9.51
2022-09-20T04:03:08.466Z,9.50
2022-09-20T04:04:08.438Z,9.51
2022-09-20T04:05:08.455Z,9.51
2022-09-20T04:06:08.426Z,9.51
2022-09-20T04:07:08.430Z,9.48
2022-09-20T04:08:08.406Z,9.48
2022-09-20T04:09:08.406Z,9.48
2022-09-20T04:10:08.518Z,9.48
2022-09-20T04:11:08.388Z,9.46
2022-09-20T04:12:08.379Z,9.43
2022-09-20T04:13:08.358Z,9.43
2022-09-20T04:14:11.422Z,9.43
2022-09-20T04:15:08.367Z,9.41
2022-09-20T04:16:08.418Z,9.41
2022-09-20T04:17:08.326Z,9.41
2022-09-20T04:18:08.314Z,9.40
2022-09-20T04:19:08.289Z,9.39
2022-09-20T04:20:08.275Z,9.40
2022-09-20T04:21:08.279Z,9.39
2022-09-20T04:22:08.880Z,9.37
2022-09-20T04:23:08.238Z,9.36
2022-09-20T04:24:08.221Z,9.34
2022-09-20T04:25:08.227Z,9.34
2022-09-20T04:26:08.208Z,9.34
2022-09-20T04:27:08.198Z,9.37
2022-09-20T04:28:08.171Z,9.37
2022-09-20T04:29:08.267Z,9.37
2022-09-20T04:30:08.188Z,9.37
2022-09-20T04:31:08.226Z,9.37
2022-09-20T04:32:08.207Z,9.37
2022-09-20T04:33:08.118Z,9.39
2022-09-20T04:34:08.123Z,9.37
2022-09-20T04:35:08.110Z,9.37
2022-09-20T04:36:08.086Z,9.37
2022-09-20T04:37:08.079Z,9.37
2022-09-20T04:38:08.067Z,9.36
2022-09-20T04:39:08.106Z,9.34
2022-09-20T04:40:08.095Z,9.34
2022-09-20T04:41:08.038Z,9.32
2022-09-20T04:42:08.206Z,9.32
2022-09-20T04:43:08.103Z,9.32
2022-09-20T04:44:08.036Z,9.32
2022-09-20T04:45:07.995Z,9.32
2022-09-20T04:46:08.038Z,9.34
2022-09-20T04:47:08.013Z,9.36
2022-09-20T04:48:07.950Z,9.36
2022-09-20T04:49:07.954Z,9.37
2022-09-20T04:50:07.923Z,9.37
2022-09-20T04:51:07.941Z,9.37
2022-09-20T04:52:07.918Z,9.40
2022-09-20T04:53:07.923Z,9.39
2022-09-20T04:54:07.870Z,9.41
2022-09-20T04:55:07.878Z,9.40
2022-09-20T04:56:07.850Z,9.40
2022-09-20T04:57:07.863Z,9.39
2022-09-20T04:58:07.830Z,9.39
2022-09-20T04:59:08.107Z,9.39
2022-09-20T05:00:07.834Z,9.36
2022-09-20T05:01:07.866Z,9.37
2022-09-20T05:02:08.181Z,9.36
2022-09-20T05:03:07.791Z,9.36
2022-09-20T05:04:07.761Z,9.37
2022-09-20T05:05:07.770Z,9.37
2022-09-20T05:06:07.751Z,9.37
2022-09-20T05:07:07.758Z,9.39
2022-09-20T05:08:07.739Z,9.40
2022-09-20T05:09:07.710Z,9.39
2022-09-20T05:10:07.711Z,9.36
2022-09-20T05:11:07.718Z,9.37
2022-09-20T05:12:07.680Z,9.37
2022-09-20T05:13:07.706Z,9.39
2022-09-20T05:14:07.647Z,9.37
2022-09-20T05:15:07.674Z,9.39
2022-09-20T05:16:07.670Z,9.40
2022-09-20T05:17:07.696Z,9.39
2022-09-20T05:18:07.611Z,9.39
2022-09-20T05:19:07.602Z,9.39
2022-09-20T05:20:07.590Z,9.39
2022-09-20T05:21:07.610Z,9.40
2022-09-20T05:22:07.751Z,9.39
2022-09-20T05:23:07.578Z,9.40
2022-09-20T05:24:09.548Z,9.40
2022-09-20T05:25:07.543Z,9.40
2022-09-20T05:26:07.510Z,9.40
2022-09-20T05:27:07.519Z,9.40
2022-09-20T05:28:07.523Z,9.43
2022-09-20T05:29:07.479Z,9.43
2022-09-20T05:30:07.481Z,9.41
2022-09-20T05:31:07.483Z,9.43
2022-09-20T05:32:07.508Z,9.44
2022-09-20T05:33:07.459Z,9.44
2022-09-20T05:34:07.423Z,9.46
2022-09-20T05:35:07.423Z,9.46
2022-09-20T05:36:07.412Z,9.46
2022-09-20T05:37:07.403Z,9.46
2022-09-20T05:38:07.399Z,9.47
2022-09-20T05:39:07.391Z,9.47
2022-09-20T05:40:07.510Z,9.44
2022-09-20T05:41:07.353Z,9.46
2022-09-20T05:42:07.335Z,9.44
2022-09-20T05:43:07.349Z,9.47
2022-09-20T05:44:07.356Z,9.47
2022-09-20T05:45:07.330Z,9.47
2022-09-20T05:46:07.360Z,9.46
2022-09-20T05:47:07.285Z,9.46
2022-09-20T05:48:07.283Z,9.47
2022-09-20T05:49:07.267Z,9.46
2022-09-20T05:50:07.232Z,9.47
2022-09-20T05:51:07.240Z,9.46
2022-09-20T05:52:07.231Z,9.46
2022-09-20T05:53:07.275Z,9.46
2022-09-20T05:54:07.180Z,9.48
2022-09-20T05:55:07.191Z,9.48
2022-09-20T05:56:07.164Z,9.48
2022-09-20T05:57:07.172Z,9.46
2022-09-20T05:58:07.171Z,9.47
2022-09-20T05:59:09.613Z,9.46
2022-09-20T06:00:07.163Z,9.47
2022-09-20T06:01:07.209Z,9.48
2022-09-20T06:02:07.174Z,9.47
2022-09-20T06:03:07.099Z,9.47
2022-09-20T06:04:07.120Z,9.46
2022-09-20T06:05:07.095Z,9.46
2022-09-20T06:06:07.079Z,9.46
2022-09-20T06:07:07.052Z,9.44
2022-09-20T06:08:07.051Z,9.44
2022-09-20T06:09:07.025Z,9.44
2022-09-20T06:10:07.035Z,9.44
2022-09-20T06:11:07.448Z,9.44
2022-09-20T06:12:07.060Z,9.43
2022-09-20T06:13:07.063Z,9.44
2022-09-20T06:14:07.274Z,9.43
2022-09-20T06:15:07.131Z,9.41
2022-09-20T06:16:07.213Z,9.41
2022-09-20T06:17:07.249Z,9.41
2022-09-20T06:18:07.285Z,9.41
2022-09-20T06:19:06.916Z,9.43
2022-09-20T06:20:06.902Z,9.44
2022-09-20T06:21:06.891Z,9.44
2022-09-20T06:22:06.931Z,9.46
2022-09-20T06:23:06.872Z,9.47
2022-09-20T06:24:06.880Z,9.48
2022-09-20T06:25:06.839Z,9.51
2022-09-20T06:26:06.842Z,9.54
2022-09-20T06:27:06.823Z,9.56
2022-09-20T06:28:06.812Z,9.59
2022-09-20T06:29:06.905Z,9.61
2022-09-20T06:30:06.792Z,9.61
2022-09-20T06:31:06.824Z,9.64
2022-09-20T06:32:06.832Z,9.66
2022-09-20T06:33:06.753Z,9.66
2022-09-20T06:34:06.774Z,9.69
2022-09-20T06:35:06.744Z,9.69
2022-09-20T06:36:06.720Z,9.72
2022-09-20T06:37:06.704Z,9.73
2022-09-20T06:38:06.724Z,9.77
2022-09-20T06:39:06.684Z,9.79
2022-09-20T06:40:06.709Z,9.80
2022-09-20T06:41:06.672Z,9.82
2022-09-20T06:42:06.660Z,9.84
2022-09-20T06:43:06.676Z,9.89
2022-09-20T06:44:06.710Z,9.95
2022-09-20T06:45:06.628Z,9.99
2022-09-20T06:46:06.662Z,10.04
2022-09-20T06:47:06.593Z,10.07
2022-09-20T06:48:06.605Z,10.12
2022-09-20T06:49:06.596Z,10.17
2022-09-20T06:50:06.604Z,10.19
2022-09-20T06:51:06.572Z,10.19
2022-09-20T06:52:06.545Z,10.23
2022-09-20T06:53:06.514Z,10.20
2022-09-20T06:54:06.544Z,10.23
2022-09-20T06:55:06.504Z,10.26
2022-09-20T06:56:06.504Z,10.30
2022-09-20T06:57:06.485Z,10.31
2022-09-20T06:58:06.472Z,10.34
2022-09-20T06:59:06.601Z,10.37
2022-09-20T07:00:06.456Z,10.37
2022-09-20T07:01:06.511Z,10.38
2022-09-20T07:02:06.467Z,10.35
2022-09-20T07:03:06.444Z,10.34
2022-09-20T07:04:06.437Z,10.34
2022-09-20T07:05:06.397Z,10.34
2022-09-20T07:06:06.414Z,10.34
2022-09-20T07:07:09.471Z,10.38
2022-09-20T07:08:06.364Z,10.38
2022-09-20T07:09:06.364Z,10.40
2022-09-20T07:10:06.396Z,10.40
2022-09-20T07:11:06.340Z,10.41
2022-09-20T07:12:06.324Z,10.38
2022-09-20T07:13:06.306Z,10.40
2022-09-20T07:14:06.448Z,10.41
2022-09-20T07:15:06.308Z,10.44
2022-09-20T07:16:06.467Z,10.48
2022-09-20T07:17:06.256Z,10.51
2022-09-20T07:18:06.245Z,10.54
2022-09-20T07:19:06.236Z,10.56
2022-09-20T07:20:06.255Z,10.53
2022-09-20T07:21:06.217Z,10.53
2022-09-20T07:22:06.232Z,10.57
2022-09-20T07:23:06.188Z,10.59
2022-09-20T07:24:06.188Z,10.57
2022-09-20T07:25:06.166Z,10.60
2022-09-20T07:26:06.177Z,10.63
2022-09-20T07:27:06.152Z,10.67
2022-09-20T07:28:06.145Z,10.64
2022-09-20T07:29:06.222Z,10.69
2022-09-20T07:30:06.130Z,10.71
2022-09-20T07:31:06.155Z,10.72
2022-09-20T07:32:06.113Z,10.72
2022-09-20T07:33:06.077Z,10.71
2022-09-20T07:34:06.094Z,10.69
2022-09-20T07:35:06.098Z,10.69
2022-09-20T07:36:06.053Z,10.69
2022-09-20T07:37:06.036Z,10.71
2022-09-20T07:38:06.045Z,10.72
2022-09-20T07:39:06.012Z,10.74
2022-09-20T07:40:06.035Z,10.72
2022-09-20T07:41:06.046Z,10.74
2022-09-20T07:42:05.994Z,10.72
2022-09-20T07:43:05.981Z,10.71
2022-09-20T07:44:06.078Z,10.72
2022-09-20T07:45:05.961Z,10.74
2022-09-20T07:46:06.000Z,10.74
2022-09-20T07:47:05.925Z,10.78
2022-09-20T07:48:05.910Z,10.82
2022-09-20T07:49:05.897Z,10.89
2022-09-20T07:50:05.897Z,10.93
2022-09-20T07:51:08.779Z,11.02
2022-09-20T07:52:05.886Z,11.11
2022-09-20T07:53:05.845Z,11.19
2022-09-20T07:54:05.846Z,11.22
2022-09-20T07:55:05.853Z,11.19
2022-09-20T07:56:05.826Z,11.19
2022-09-20T07:57:05.859Z,11.18
2022-09-20T07:58:05.805Z,11.17
2022-09-20T07:59:05.900Z,11.19
2022-09-20T08:00:05.791Z,11.15
2022-09-20T08:01:05.863Z,11.17
2022-09-20T08:02:05.820Z,11.15
2022-09-20T08:03:05.866Z,11.11
2022-09-20T08:04:05.885Z,11.07
2022-09-20T08:05:05.906Z,11.07
2022-09-20T08:06:05.946Z,11.10
2022-09-20T08:07:05.854Z,11.15
2022-09-20T08:08:06.005Z,11.17
2022-09-20T08:09:10.196Z,11.15
2022-09-20T08:10:06.657Z,11.17
2022-09-20T08:11:05.649Z,11.17
2022-09-20T08:14:17.363Z,11.14
2022-09-20T08:15:09.739Z,11.02
2022-09-20T08:16:06.594Z,10.97
2022-09-20T08:17:05.617Z,10.94
2022-09-20T08:18:05.590Z,10.93
2022-09-20T08:19:05.558Z,10.94
2022-09-20T08:20:05.561Z,10.92
2022-09-20T08:21:05.550Z,10.92
2022-09-20T08:22:05.538Z,10.87
2022-09-20T08:23:22.647Z,10.87
2022-09-20T08:24:06.500Z,10.90
2022-09-20T08:25:05.494Z,10.89
2022-09-20T08:26:07.716Z,10.92
2022-09-20T08:27:05.482Z,10.92
2022-09-20T08:28:05.458Z,10.92
2022-09-20T08:29:05.575Z,10.92
2022-09-20T08:30:05.446Z,10.89
2022-09-20T08:31:05.418Z,10.87
2022-09-20T08:32:05.447Z,10.81
2022-09-20T08:33:05.390Z,10.79
2022-09-20T08:34:05.390Z,10.82
2022-09-20T08:35:05.370Z,10.92
2022-09-20T08:36:05.391Z,10.99
2022-09-20T08:37:05.358Z,11.04
2022-09-20T08:40:06.419Z,11.15
2022-09-20T08:41:05.298Z,11.23
2022-09-20T08:42:05.334Z,11.45
2022-09-20T08:43:05.518Z,11.50
2022-09-20T08:44:05.402Z,11.51
2022-09-20T08:45:05.259Z,11.55
2022-09-20T08:46:05.690Z,11.65
2022-09-20T08:47:05.250Z,11.69
2022-09-20T08:48:05.230Z,11.75
2022-09-20T08:49:05.527Z,11.80
2022-09-20T08:50:17.728Z,11.86
2022-09-20T08:51:06.232Z,11.87
2022-09-20T08:52:10.444Z,11.88
2022-09-20T08:53:06.198Z,11.99
2022-09-20T08:54:05.171Z,12.03
2022-09-20T08:55:07.454Z,12.17
2022-09-20T08:56:05.139Z,12.42
2022-09-20T08:57:05.126Z,12.50
2022-09-20T08:58:08.878Z,12.57
2022-09-20T08:59:05.099Z,12.60
2022-09-20T09:00:05.231Z,12.64
2022-09-20T09:01:05.111Z,12.64
2022-09-20T09:02:05.122Z,12.64
2022-09-20T09:03:05.074Z,12.76
2022-09-20T09:04:05.091Z,12.91
2022-09-20T09:05:05.023Z,12.95
2022-09-20T09:06:10.345Z,12.97
2022-09-20T09:07:06.026Z,13.03
2022-09-20T09:08:05.138Z,13.00
2022-09-20T09:09:04.999Z,13.08
2022-09-20T09:10:04.995Z,13.11
2022-09-20T09:11:04.963Z,13.18
2022-09-20T09:12:04.992Z,13.25
2022-09-20T09:13:04.966Z,13.33
2022-09-20T09:14:04.932Z,13.35
2022-09-20T09:15:04.943Z,13.42
2022-09-20T09:16:04.912Z,13.63
2022-09-20T09:17:04.966Z,13.75
2022-09-20T09:18:05.043Z,13.79
2022-09-20T09:19:04.920Z,13.79
2022-09-20T09:20:04.873Z,13.85
2022-09-20T09:21:04.897Z,13.83
2022-09-20T09:22:04.855Z,13.86
2022-09-20T09:23:04.863Z,13.83
2022-09-20T09:24:04.825Z,13.81
2022-09-20T09:25:04.855Z,13.78
2022-09-20T09:26:04.803Z,13.85
2022-09-20T09:27:04.783Z,13.97
2022-09-20T09:28:04.794Z,14.05
2022-09-20T09:29:04.779Z,14.15
2022-09-20T09:30:04.765Z,14.08
2022-09-20T09:31:04.743Z,14.11
2022-09-20T09:32:04.828Z,14.08
2022-09-20T09:33:04.724Z,14.10
2022-09-20T09:34:04.799Z,14.10
2022-09-20T09:35:04.703Z,14.05
2022-09-20T09:36:04.696Z,14.07
2022-09-20T09:37:04.683Z,14.14
2022-09-20T09:38:04.683Z,13.99
2022-09-20T09:39:04.721Z,14.05
2022-09-20T09:40:04.711Z,14.26
2022-09-20T09:41:04.645Z,14.23
2022-09-20T09:42:04.623Z,14.20
2022-09-20T09:43:04.618Z,14.28
2022-09-20T09:44:04.620Z,14.30
2022-09-20T09:45:04.595Z,14.40
2022-09-20T09:46:04.632Z,14.43
2022-09-20T09:47:04.565Z,14.50
2022-09-20T09:48:04.563Z,14.60
2022-09-20T09:49:04.827Z,14.68
2022-09-20T09:50:09.500Z,14.79
2022-09-20T09:51:05.540Z,14.97
2022-09-20T09:52:04.519Z,15.10
2022-09-20T09:53:04.505Z,15.11
2022-09-20T09:54:04.547Z,15.06
2022-09-20T09:55:05.870Z,15.21
2022-09-20T09:56:04.468Z,15.17
2022-09-20T09:57:04.440Z,15.04
2022-09-20T09:58:04.456Z,14.97
2022-09-20T09:59:04.428Z,14.92
2022-09-20T10:00:09.374Z,14.89
2022-09-20T10:01:05.459Z,14.94
2022-09-20T10:02:04.459Z,15.09
2022-09-20T10:03:04.377Z,15.22
2022-09-20T10:04:04.367Z,15.29
2022-09-20T10:05:04.389Z,15.36
2022-09-20T10:06:04.368Z,15.43
2022-09-20T10:07:04.360Z,15.52
2022-09-20T10:08:04.340Z,15.57
2022-09-20T10:09:04.307Z,15.72
2022-09-20T10:10:04.307Z,15.82
2022-09-20T10:11:04.336Z,15.72
2022-09-20T10:12:04.288Z,15.68
2022-09-20T10:13:04.268Z,15.62
2022-09-20T10:14:04.267Z,15.64
2022-09-20T10:15:04.253Z,15.57
2022-09-20T10:16:04.239Z,15.42
2022-09-20T10:17:04.244Z,15.36
2022-09-20T10:18:04.207Z,15.27
2022-09-20T10:19:04.208Z,15.11
2022-09-20T10:20:04.194Z,15.00
2022-09-20T10:21:04.224Z,14.94
2022-09-20T10:22:04.188Z,14.88
2022-09-20T10:23:39.417Z,14.82
2022-09-20T10:24:05.231Z,14.77
2022-09-20T10:25:04.140Z,14.81
2022-09-20T10:26:04.132Z,14.91
2022-09-20T10:27:04.154Z,14.94
2022-09-20T10:28:04.148Z,15.03
2022-09-20T10:29:04.173Z,15.11
2022-09-20T10:30:04.148Z,15.18
2022-09-20T10:31:04.233Z,15.27
2022-09-20T10:32:04.142Z,15.43
2022-09-20T10:33:04.141Z,15.54
2022-09-20T10:34:04.201Z,15.62
2022-09-20T10:35:04.141Z,15.68
2022-09-20T10:36:04.238Z,15.79
2022-09-20T10:37:04.202Z,15.84
2022-09-20T10:38:04.287Z,15.83
2022-09-20T10:39:04.273Z,15.80
2022-09-20T10:40:04.283Z,15.68
2022-09-20T10:41:04.204Z,15.47
2022-09-20T10:42:04.303Z,15.36
2022-09-20T10:43:03.944Z,15.25
2022-09-20T10:44:05.647Z,15.15
2022-09-20T10:45:03.914Z,14.96
2022-09-20T10:46:27.957Z,14.70
2022-09-20T10:47:05.140Z,14.72
2022-09-20T10:48:03.873Z,14.72
2022-09-20T10:49:03.874Z,14.68
2022-09-20T10:50:03.846Z,14.63
2022-09-20T10:51:03.844Z,14.63
2022-09-20T10:52:03.816Z,14.66
2022-09-20T10:53:03.845Z,14.72
2022-09-20T10:54:03.797Z,14.84
2022-09-20T10:55:03.801Z,14.81
2022-09-20T10:56:03.780Z,14.77
2022-09-20T10:57:03.789Z,14.72
2022-09-20T10:58:03.796Z,14.72
2022-09-20T10:59:03.757Z,14.72
2022-09-20T11:00:03.748Z,14.66
2022-09-20T11:01:03.802Z,14.59
2022-09-20T11:02:03.781Z,14.60
2022-09-20T11:03:03.730Z,14.69
2022-09-20T11:04:03.688Z,14.82
2022-09-20T11:05:03.684Z,14.97
2022-09-20T11:06:03.657Z,15.09
2022-09-20T11:07:03.678Z,15.21
2022-09-20T11:08:03.676Z,15.25
2022-09-20T11:09:03.648Z,15.36
2022-09-20T11:10:03.629Z,15.43
2022-09-20T11:11:03.659Z,15.52
2022-09-20T11:12:03.600Z,15.65
2022-09-20T11:13:03.615Z,15.72
2022-09-20T11:14:03.578Z,15.65
2022-09-20T11:15:03.575Z,15.54
2022-09-20T11:16:03.569Z,15.49
2022-09-20T11:17:03.561Z,15.54
2022-09-20T11:18:03.529Z,15.59
2022-09-20T11:19:03.636Z,15.49
2022-09-20T11:20:07.192Z,15.44
2022-09-20T11:21:03.517Z,15.47
2022-09-20T11:22:03.490Z,15.46
2022-09-20T11:23:03.481Z,15.42
2022-09-20T11:24:03.480Z,15.37
2022-09-20T11:25:03.457Z,15.28
2022-09-20T11:26:03.439Z,15.24
2022-09-20T11:27:03.459Z,15.14
2022-09-20T11:28:03.423Z,15.09
2022-09-20T11:29:03.434Z,15.02
2022-09-20T11:30:03.389Z,14.99
2022-09-20T11:31:03.410Z,14.99
2022-09-20T11:32:03.431Z,14.97
2022-09-20T11:33:03.361Z,14.89
2022-09-20T11:34:03.358Z,14.85
2022-09-20T11:35:03.342Z,14.84
2022-09-20T11:36:03.322Z,14.79
2022-09-20T11:37:03.460Z,14.72
2022-09-20T11:38:03.291Z,14.69
2022-09-20T11:39:03.337Z,14.63
2022-09-20T11:40:03.353Z,14.62
2022-09-20T11:41:03.287Z,14.58
2022-09-20T11:42:03.263Z,14.53
2022-09-20T11:43:03.258Z,14.54
2022-09-20T11:44:03.230Z,14.55
2022-09-20T11:45:03.243Z,14.54
2022-09-20T11:46:03.293Z,14.55
2022-09-20T11:47:03.286Z,14.59
2022-09-20T11:48:03.181Z,14.60
2022-09-20T11:49:04.111Z,14.65
2022-09-20T11:50:03.230Z,14.69
2022-09-20T11:51:03.166Z,14.78
2022-09-20T11:52:03.234Z,14.85
2022-09-20T11:53:03.202Z,14.89
2022-09-20T11:54:03.182Z,14.92
2022-09-20T11:55:03.233Z,15.02
2022-09-20T11:56:03.174Z,15.17
2022-09-20T11:57:03.223Z,15.33
2022-09-20T11:58:03.197Z,15.46
2022-09-20T11:59:03.206Z,15.62
2022-09-20T12:00:03.142Z,15.73
2022-09-20T12:01:03.206Z,15.77
2022-09-20T12:02:03.335Z,15.62
2022-09-20T12:03:03.430Z,15.54
2022-09-20T12:04:31.813Z,15.47
2022-09-20T12:05:03.994Z,15.40
2022-09-20T12:06:03.026Z,15.35
2022-09-20T12:07:08.331Z,15.29
2022-09-20T12:08:03.950Z,15.28
2022-09-20T12:09:02.954Z,15.27
2022-09-20T12:10:02.954Z,15.21
2022-09-20T12:11:02.947Z,15.19
2022-09-20T12:12:02.979Z,15.21
2022-09-20T12:13:03.038Z,15.27
2022-09-20T12:14:02.902Z,15.29
2022-09-20T12:15:02.930Z,15.29
2022-09-20T12:16:02.890Z,15.29
2022-09-20T12:17:02.929Z,15.35
2022-09-20T12:18:08.284Z,15.39
2022-09-20T12:19:03.847Z,15.43
2022-09-20T12:20:02.818Z,15.46
2022-09-20T12:21:02.820Z,15.51
2022-09-20T12:22:02.818Z,15.58
2022-09-20T12:23:02.803Z,15.67
2022-09-20T12:24:02.768Z,15.80
2022-09-20T12:25:02.771Z,15.97
2022-09-20T12:26:02.759Z,16.17
2022-09-20T12:27:02.746Z,16.33
2022-09-20T12:28:02.770Z,16.42
2022-09-20T12:29:02.929Z,16.39
2022-09-20T12:30:02.706Z,16.38
2022-09-20T12:31:02.707Z,16.35
2022-09-20T12:32:02.714Z,16.23
2022-09-20T12:33:02.691Z,16.13
2022-09-20T12:34:02.681Z,16.12
2022-09-20T12:35:02.662Z,16.13
2022-09-20T12:36:02.680Z,16.12
2022-09-20T12:37:02.635Z,16.15
2022-09-20T12:38:02.675Z,16.20
2022-09-20T12:39:02.690Z,16.21
2022-09-20T12:40:02.893Z,16.17
2022-09-20T12:41:02.720Z,16.08
2022-09-20T12:42:02.751Z,16.04
2022-09-20T12:43:02.696Z,16.10
2022-09-20T12:44:02.751Z,16.26
2022-09-20T12:45:02.893Z,16.39
2022-09-20T12:46:06.388Z,16.50
2022-09-20T12:47:03.751Z,16.54
2022-09-20T12:48:02.503Z,16.54
2022-09-20T12:49:02.500Z,16.47
2022-09-20T12:50:02.497Z,16.46
2022-09-20T12:51:02.483Z,16.43
2022-09-20T12:52:02.451Z,16.39
2022-09-20T12:53:02.470Z,16.33
2022-09-20T12:54:02.431Z,16.21
2022-09-20T12:55:07.614Z,16.08
2022-09-20T12:56:03.427Z,15.94
2022-09-20T12:57:02.431Z,15.82
2022-09-20T12:58:02.390Z,15.76
2022-09-20T12:59:02.384Z,15.70
2022-09-20T13:00:02.363Z,15.65
2022-09-20T13:01:02.432Z,15.59
2022-09-20T13:02:02.393Z,15.55
2022-09-20T13:03:02.357Z,15.49
2022-09-20T13:04:02.327Z,15.44
2022-09-20T13:05:02.331Z,15.40
2022-09-20T13:06:02.303Z,15.37
2022-09-20T13:07:02.315Z,15.39